createdAt,value
2018-12-16T00:01:13.986Z,-4.60
2018-12-16T00:03:51.069Z,-4.60
2018-12-16T00:06:35.545Z,-4.60
2018-12-16T00:09:13.925Z,-4.50
2018-12-16T00:11:52.622Z,-4.50
2018-12-16T00:14:34.843Z,-4.50
2018-12-16T00:17:09.562Z,-4.60
2018-12-16T00:19:51.465Z,-4.60
2018-12-16T00:22:32.066Z,-4.60
2018-12-16T00:25:03.790Z,-4.60
2018-12-16T00:27:39.528Z,-4.60
2018-12-16T00:30:11.410Z,-4.60
2018-12-16T00:32:49.650Z,-4.60
2018-12-16T00:35:24.191Z,-4.60
2018-12-16T00:53:19.635Z,-4.60
2018-12-16T00:55:51.454Z,-4.70
2018-12-16T00:58:23.638Z,-4.70
2018-12-16T01:00:58.419Z,-4.70
2018-12-16T01:06:09.639Z,-4.80
2018-12-16T01:08:45.161Z,-4.70
2018-12-16T01:11:20.639Z,-4.70
2018-12-16T01:13:59.999Z,-4.70
2018-12-16T01:16:40.328Z,-4.70
2018-12-16T01:19:15.140Z,-4.70
2018-12-16T01:21:57.700Z,-4.70
2018-12-16T01:24:41.599Z,-4.80
2018-12-16T01:27:16.720Z,-4.80
2018-12-16T01:29:48.520Z,-4.80
2018-12-16T01:32:26.277Z,-4.80
2018-12-16T01:34:58.280Z,-4.80
2018-12-16T01:37:38.219Z,-4.80
2018-12-16T01:40:14.099Z,-4.80
2018-12-16T01:42:52.860Z,-4.80
2018-12-16T01:45:28.385Z,-4.80
2018-12-16T01:48:00.739Z,-4.70
2018-12-16T01:53:16.558Z,-4.80
2018-12-16T01:55:52.937Z,-4.90
2018-12-16T01:58:33.927Z,-4.90
2018-12-16T02:01:07.941Z,-4.90
2018-12-16T02:03:42.582Z,-4.90
2018-12-16T02:06:17.302Z,-4.90
2018-12-16T02:08:52.421Z,-5.00
2018-12-16T02:11:33.762Z,-5.00
2018-12-16T02:14:09.302Z,-5.00
2018-12-16T02:16:44.001Z,-5.00
2018-12-16T02:19:17.803Z,-5.00
2018-12-16T02:22:00.023Z,-5.00
2018-12-16T02:24:35.563Z,-5.00
2018-12-16T02:27:11.722Z,-5.00
2018-12-16T02:29:51.481Z,-5.00
2018-12-16T02:32:27.163Z,-5.00
2018-12-16T02:34:59.263Z,-5.10
2018-12-16T02:37:35.103Z,-5.10
2018-12-16T02:40:10.423Z,-5.10
2018-12-16T02:42:48.391Z,-5.10
2018-12-16T02:45:22.563Z,-5.20
2018-12-16T02:47:56.662Z,-5.10
2018-12-16T02:50:32.903Z,-5.20
2018-12-16T02:53:08.045Z,-5.00
2018-12-16T02:55:42.764Z,-5.10
2018-12-16T02:58:14.843Z,-5.10
2018-12-16T03:00:53.442Z,-5.10
2018-12-16T03:03:30.004Z,-5.10
2018-12-16T03:06:05.225Z,-5.10
2018-12-16T03:08:46.243Z,-5.10
2018-12-16T03:11:38.549Z,-5.10
2018-12-16T03:14:17.761Z,-5.10
2018-12-16T03:16:56.263Z,-5.10
2018-12-16T03:19:34.765Z,-5.20
2018-12-16T03:22:07.343Z,-5.20
2018-12-16T03:24:41.785Z,-5.30
2018-12-16T03:27:16.867Z,-5.40
2018-12-16T03:29:53.603Z,-5.50
2018-12-16T03:32:29.185Z,-5.60
2018-12-16T03:35:03.706Z,-5.70
2018-12-16T03:37:39.666Z,-5.70
2018-12-16T03:40:28.298Z,-5.70
2018-12-16T03:43:03.524Z,-5.70
2018-12-16T03:45:40.225Z,-5.70
2018-12-16T03:48:12.465Z,-5.80
2018-12-16T03:50:53.423Z,-5.70
2018-12-16T03:53:26.423Z,-5.60
2018-12-16T03:56:06.824Z,-5.60
2018-12-16T03:58:48.428Z,-5.50
2018-12-16T04:01:29.660Z,-5.50
2018-12-16T04:04:05.280Z,-5.50
2018-12-16T04:06:43.169Z,-5.40
2018-12-16T04:09:19.254Z,-5.30
2018-12-16T04:11:54.524Z,-5.40
2018-12-16T04:14:29.827Z,-5.40
2018-12-16T04:17:08.772Z,-5.50
2018-12-16T04:19:40.424Z,-5.50
2018-12-16T04:22:13.865Z,-5.50
2018-12-16T04:24:54.505Z,-5.60
2018-12-16T04:27:33.523Z,-5.70
2018-12-16T04:30:12.160Z,-5.80
2018-12-16T04:32:47.208Z,-5.90
2018-12-16T04:35:26.045Z,-5.90
2018-12-16T04:38:07.440Z,-6.00
2018-12-16T04:43:26.640Z,-6.20
2018-12-16T04:45:58.642Z,-6.30
2018-12-16T04:48:33.260Z,-6.30
2018-12-16T04:51:07.200Z,-6.30
2018-12-16T04:53:43.566Z,-6.20
2018-12-16T04:56:17.999Z,-6.10
2018-12-16T04:59:01.005Z,-6.10
2018-12-16T05:01:49.039Z,-6.00
2018-12-16T05:04:32.119Z,-6.10
2018-12-16T05:07:13.003Z,-6.10
2018-12-16T05:09:52.261Z,-6.10
2018-12-16T05:12:34.249Z,-6.20
2018-12-16T05:15:08.239Z,-6.30
2018-12-16T05:17:50.202Z,-6.30
2018-12-16T05:20:25.319Z,-6.30
2018-12-16T05:23:05.167Z,-6.30
2018-12-16T05:25:40.465Z,-6.30
2018-12-16T05:28:21.442Z,-6.20
2018-12-16T05:31:03.062Z,-6.10
2018-12-16T05:33:45.943Z,-6.10
2018-12-16T05:36:22.801Z,-6.10
2018-12-16T05:38:58.704Z,-6.10
2018-12-16T05:41:33.179Z,-6.20
2018-12-16T05:44:05.538Z,-6.30
2018-12-16T05:46:53.544Z,-6.50
2018-12-16T05:49:28.799Z,-6.60
2018-12-16T05:52:06.798Z,-6.70
2018-12-16T05:54:43.707Z,-6.70
2018-12-16T05:57:18.798Z,-6.70
2018-12-16T05:59:55.198Z,-6.70
2018-12-16T06:02:33.630Z,-6.70
2018-12-16T06:05:06.601Z,-6.60
2018-12-16T06:07:51.342Z,-6.60
2018-12-16T06:10:27.200Z,-6.60
2018-12-16T06:13:08.602Z,-6.50
2018-12-16T06:16:00.246Z,-6.50
2018-12-16T06:18:38.407Z,-6.50
2018-12-16T06:21:24.417Z,-6.60
2018-12-16T06:24:00.344Z,-6.60
2018-12-16T06:26:35.757Z,-6.50
2018-12-16T06:29:25.146Z,-6.50
2018-12-16T06:32:00.347Z,-6.30
2018-12-16T06:34:36.221Z,-6.30
2018-12-16T06:37:16.942Z,-6.40
2018-12-16T06:39:48.560Z,-6.40
2018-12-16T06:42:24.501Z,-6.50
2018-12-16T06:44:56.219Z,-6.60
2018-12-16T06:47:32.159Z,-6.70
2018-12-16T06:50:10.928Z,-6.70
2018-12-16T06:52:45.830Z,-6.70
2018-12-16T06:55:26.867Z,-6.70
2018-12-16T06:58:01.667Z,-6.70
2018-12-16T07:00:50.238Z,-6.70
2018-12-16T07:03:29.599Z,-6.70
2018-12-16T07:06:01.576Z,-6.70
2018-12-16T07:08:37.756Z,-6.70
2018-12-16T07:11:18.757Z,-6.70
2018-12-16T07:14:01.343Z,-6.70
2018-12-16T07:16:37.141Z,-6.60
2018-12-16T07:19:20.579Z,-6.60
2018-12-16T07:22:02.238Z,-6.60
2018-12-16T07:24:44.354Z,-6.50
2018-12-16T07:27:18.718Z,-6.50
2018-12-16T07:30:01.277Z,-6.50
2018-12-16T07:32:41.678Z,-6.50
2018-12-16T07:35:17.456Z,-6.40
2018-12-16T07:37:50.206Z,-6.40
2018-12-16T07:40:25.586Z,-6.30
2018-12-16T07:43:05.667Z,-6.20
2018-12-16T07:45:42.967Z,-6.20
2018-12-16T07:48:19.394Z,-6.10
2018-12-16T07:50:53.827Z,-6.10
2018-12-16T07:53:26.189Z,-6.10
2018-12-16T07:56:13.299Z,-6.20
2018-12-16T07:58:49.614Z,-6.30
2018-12-16T08:01:25.478Z,-6.30
2018-12-16T08:04:00.454Z,-6.20
2018-12-16T08:06:41.916Z,-6.10
2018-12-16T08:09:13.198Z,-5.90
2018-12-16T08:11:50.059Z,-5.70
2018-12-16T08:14:25.796Z,-5.60
2018-12-16T08:17:00.827Z,-5.40
2018-12-16T08:19:33.903Z,-5.40
2018-12-16T08:22:05.418Z,-5.30
2018-12-16T08:24:39.949Z,-5.30
2018-12-16T08:27:15.889Z,-5.10
2018-12-16T08:29:50.965Z,-5.00
2018-12-16T08:32:25.965Z,-4.90
2018-12-16T08:34:58.267Z,-4.80
2018-12-16T08:37:30.806Z,-4.70
2018-12-16T08:40:03.026Z,-4.60
2018-12-16T08:42:37.121Z,-4.60
2018-12-16T08:45:17.340Z,-4.50
2018-12-16T08:47:52.341Z,-4.40
2018-12-16T08:50:33.180Z,-4.40
2018-12-16T08:53:08.798Z,-4.50
2018-12-16T08:55:46.543Z,-4.50
2018-12-16T08:58:33.563Z,-4.30
2018-12-16T09:01:14.719Z,-4.30
2018-12-16T09:03:48.803Z,-4.30
2018-12-16T09:06:20.622Z,-4.20
2018-12-16T09:08:55.981Z,-4.00
2018-12-16T09:11:30.029Z,-4.10
2018-12-16T09:14:03.566Z,-4.10
2018-12-16T09:16:38.086Z,-4.10
2018-12-16T09:19:19.044Z,-4.10
2018-12-16T09:21:53.284Z,-4.00
2018-12-16T09:24:27.284Z,-3.80
2018-12-16T09:27:07.740Z,-3.60
2018-12-16T09:29:48.488Z,-3.50
2018-12-16T09:32:22.754Z,-3.40
2018-12-16T09:35:03.191Z,-3.20
2018-12-16T09:37:39.484Z,-3.20
2018-12-16T09:40:13.380Z,-3.10
2018-12-16T09:42:48.170Z,-3.10
2018-12-16T09:45:19.983Z,-3.10
2018-12-16T09:47:54.756Z,-2.90
2018-12-16T09:50:30.457Z,-2.80
2018-12-16T09:53:05.116Z,-2.70
2018-12-16T09:55:39.175Z,-2.70
2018-12-16T09:58:13.116Z,-2.70
2018-12-16T10:00:47.941Z,-2.70
2018-12-16T10:03:19.680Z,-2.70
2018-12-16T10:05:51.942Z,-2.70
2018-12-16T10:08:33.961Z,-2.70
2018-12-16T10:11:07.961Z,-2.70
2018-12-16T10:13:41.942Z,-2.70
2018-12-16T10:16:18.410Z,-2.70
2018-12-16T10:18:50.797Z,-2.60
2018-12-16T10:21:24.861Z,-2.60
2018-12-16T10:23:58.802Z,-2.60
2018-12-16T10:26:33.960Z,-2.60
2018-12-16T10:29:07.741Z,-2.60
2018-12-16T10:34:20.820Z,-2.50
2018-12-16T10:36:55.041Z,-2.40
2018-12-16T10:39:27.605Z,-2.40
2018-12-16T10:42:02.334Z,-2.30
2018-12-16T10:44:33.294Z,-2.20
2018-12-16T10:47:11.234Z,-2.20
2018-12-16T10:49:50.154Z,-2.20
2018-12-16T10:52:24.454Z,-2.30
2018-12-16T10:54:59.794Z,-2.30
2018-12-16T10:57:41.874Z,-2.30
2018-12-16T11:00:21.472Z,-2.20
2018-12-16T11:02:56.297Z,-2.20
2018-12-16T11:05:29.255Z,-2.10
2018-12-16T11:08:01.526Z,-2.00
2018-12-16T11:10:49.856Z,-1.90
2018-12-16T11:13:22.194Z,-1.80
2018-12-16T11:15:58.295Z,-1.90
2018-12-16T11:18:32.654Z,-2.20
2018-12-16T11:21:07.210Z,-2.30
2018-12-16T11:23:53.518Z,-2.20
2018-12-16T11:26:20.877Z,-2.00
2018-12-16T11:28:55.763Z,-1.90
2018-12-16T11:31:29.314Z,-1.70
2018-12-16T11:34:03.839Z,-1.60
2018-12-16T11:39:16.701Z,-1.60
2018-12-16T11:41:52.344Z,-1.60
2018-12-16T11:44:37.014Z,-1.60
2018-12-16T11:47:12.839Z,-1.70
2018-12-16T11:49:47.700Z,-1.60
2018-12-16T11:52:23.008Z,-1.60
2018-12-16T11:54:57.997Z,-1.60
2018-12-16T11:57:29.917Z,-1.60
2018-12-16T12:00:06.377Z,-1.70
2018-12-16T12:02:42.294Z,-1.70
2018-12-16T12:05:17.055Z,-1.70
2018-12-16T12:07:53.975Z,-1.80
2018-12-16T12:10:34.014Z,-1.80
2018-12-16T12:13:09.756Z,-1.80
2018-12-16T12:15:41.597Z,-1.80
2018-12-16T12:18:18.237Z,-1.80
2018-12-16T12:20:52.136Z,-1.80
2018-12-16T12:23:26.696Z,-1.80
2018-12-16T12:26:12.116Z,-1.70
2018-12-16T12:28:47.255Z,-1.60
2018-12-16T12:31:29.917Z,-1.50
2018-12-16T12:34:14.277Z,-1.50
2018-12-16T12:36:49.758Z,-1.50
2018-12-16T12:39:27.336Z,-1.60
2018-12-16T12:42:04.798Z,-1.70
2018-12-16T12:44:40.515Z,-1.70
2018-12-16T12:47:16.695Z,-1.80
2018-12-16T12:49:53.255Z,-1.80
2018-12-16T12:52:29.680Z,-1.90
2018-12-16T12:55:02.475Z,-1.90
2018-12-16T12:57:34.695Z,-1.80
2018-12-16T13:03:04.819Z,-1.70
2018-12-16T13:05:39.201Z,-1.70
2018-12-16T13:08:17.020Z,-1.60
2018-12-16T13:10:48.300Z,-1.60
2018-12-16T13:13:29.829Z,-1.60
2018-12-16T13:16:10.380Z,-1.70
2018-12-16T13:18:49.580Z,-1.70
2018-12-16T13:21:24.701Z,-1.70
2018-12-16T13:23:57.100Z,-1.60
2018-12-16T13:26:31.560Z,-1.60
2018-12-16T13:29:03.761Z,-1.60
2018-12-16T13:31:39.540Z,-1.70
2018-12-16T13:34:17.058Z,-1.70
2018-12-16T13:36:55.077Z,-1.80
2018-12-16T13:39:30.937Z,-1.80
2018-12-16T13:42:05.399Z,-1.90
2018-12-16T13:44:41.638Z,-1.90
2018-12-16T13:47:18.197Z,-1.90
2018-12-16T13:49:51.035Z,-1.90
2018-12-16T13:52:26.596Z,-1.90
2018-12-16T13:55:03.337Z,-1.80
2018-12-16T13:57:41.259Z,-1.80
2018-12-16T14:00:22.270Z,-1.80
2018-12-16T14:02:59.827Z,-1.80
2018-12-16T14:05:34.348Z,-1.80
2018-12-16T14:08:08.567Z,-1.80
2018-12-16T14:10:55.608Z,-1.90
2018-12-16T14:13:31.526Z,-1.90
2018-12-16T14:16:03.867Z,-2.00
2018-12-16T14:18:38.045Z,-2.00
2018-12-16T14:21:16.546Z,-2.10
2018-12-16T14:23:54.421Z,-2.10
2018-12-16T14:26:34.075Z,-2.10
2018-12-16T14:29:11.595Z,-2.10
2018-12-16T14:31:47.576Z,-2.20
2018-12-16T14:34:23.975Z,-2.20
2018-12-16T14:36:58.495Z,-2.20
2018-12-16T14:39:34.164Z,-2.30
2018-12-16T14:42:13.778Z,-2.30
2018-12-16T14:44:45.757Z,-2.30
2018-12-16T14:47:24.095Z,-2.30
2018-12-16T14:50:08.456Z,-2.40
2018-12-16T14:52:49.335Z,-2.40
2018-12-16T14:55:25.995Z,-2.40
2018-12-16T14:57:57.755Z,-2.40
2018-12-16T15:03:23.845Z,-2.50
2018-12-16T15:05:58.464Z,-2.50
2018-12-16T15:08:36.045Z,-2.50
2018-12-16T15:11:11.344Z,-2.50
2018-12-16T15:13:44.364Z,-2.50
2018-12-16T15:16:21.025Z,-2.60
2018-12-16T15:18:56.546Z,-2.60
2018-12-16T15:21:36.547Z,-2.70
2018-12-16T15:24:13.203Z,-2.70
2018-12-16T15:26:52.631Z,-2.80
2018-12-16T15:29:33.357Z,-2.90
2018-12-16T15:32:07.515Z,-2.90
2018-12-16T15:34:47.246Z,-2.90
2018-12-16T15:37:19.418Z,-3.00
2018-12-16T15:39:54.416Z,-3.00
2018-12-16T15:42:29.436Z,-3.10
2018-12-16T15:45:06.576Z,-3.10
2018-12-16T15:47:40.095Z,-3.10
2018-12-16T15:50:16.497Z,-3.20
2018-12-16T15:52:52.516Z,-3.20
2018-12-16T15:58:10.377Z,-3.30
2018-12-16T16:00:53.698Z,-3.30
2018-12-16T16:03:29.637Z,-3.30
2018-12-16T16:06:05.117Z,-3.30
2018-12-16T16:08:43.500Z,-3.30
2018-12-16T16:11:22.737Z,-3.40
2018-12-16T16:13:54.558Z,-3.40
2018-12-16T16:16:29.677Z,-3.40
2018-12-16T16:19:07.876Z,-3.40
2018-12-16T16:21:44.418Z,-3.40
2018-12-16T16:24:21.757Z,-3.40
2018-12-16T16:26:57.418Z,-3.40
2018-12-16T16:29:36.118Z,-3.40
2018-12-16T16:32:15.050Z,-3.50
2018-12-16T16:35:06.438Z,-3.60
2018-12-16T16:37:43.995Z,-3.70
2018-12-16T16:40:20.357Z,-3.70
2018-12-16T16:42:57.976Z,-3.80
2018-12-16T16:45:37.014Z,-3.80
2018-12-16T16:48:14.057Z,-3.80
2018-12-16T16:50:50.937Z,-3.80
2018-12-16T16:53:27.636Z,-3.80
2018-12-16T16:58:42.776Z,-3.80
2018-12-16T17:01:18.108Z,-3.90
2018-12-16T17:04:01.068Z,-3.90
2018-12-16T17:06:34.058Z,-3.90
2018-12-16T17:09:08.587Z,-3.90
2018-12-16T17:11:44.067Z,-3.90
2018-12-16T17:14:19.889Z,-3.90
2018-12-16T17:16:56.236Z,-3.90
2018-12-16T17:19:33.135Z,-3.90
2018-12-16T17:22:21.755Z,-3.90
2018-12-16T17:25:14.535Z,-3.90
2018-12-16T17:27:54.575Z,-3.90
2018-12-16T17:30:30.436Z,-4.00
2018-12-16T17:33:12.337Z,-4.00
2018-12-16T17:35:53.918Z,-4.10
2018-12-16T17:38:31.039Z,-4.10
2018-12-16T17:41:12.604Z,-4.10
2018-12-16T17:43:52.378Z,-4.10
2018-12-16T17:46:28.416Z,-4.20
2018-12-16T17:49:11.115Z,-4.30
2018-12-16T17:51:50.695Z,-4.20
2018-12-16T17:54:29.797Z,-4.20
2018-12-16T17:57:05.935Z,-4.20
2018-12-16T17:59:42.415Z,-4.20
2018-12-16T18:02:18.441Z,-4.30
2018-12-16T18:04:59.103Z,-4.30
2018-12-16T18:07:32.021Z,-4.30
2018-12-16T18:10:07.381Z,-4.30
2018-12-16T18:12:53.161Z,-4.30
2018-12-16T18:15:31.522Z,-4.30
2018-12-16T18:18:14.423Z,-4.30
2018-12-16T18:20:47.302Z,-4.30
2018-12-16T18:23:29.726Z,-4.30
2018-12-16T18:26:05.650Z,-4.30
2018-12-16T18:28:45.801Z,-4.30
2018-12-16T18:31:20.322Z,-4.30
2018-12-16T18:34:05.262Z,-4.30
2018-12-16T18:36:47.002Z,-4.30
2018-12-16T18:39:21.902Z,-4.40
2018-12-16T18:42:00.880Z,-4.40
2018-12-16T18:44:53.182Z,-4.30
2018-12-16T18:47:28.401Z,-4.40
2018-12-16T18:50:05.502Z,-4.40
2018-12-16T18:52:43.202Z,-4.40
2018-12-16T18:55:17.863Z,-4.40
2018-12-16T18:57:50.023Z,-4.40
2018-12-16T19:00:26.131Z,-4.40
2018-12-16T19:03:03.221Z,-4.40
2018-12-16T19:05:38.888Z,-4.40
2018-12-16T19:08:13.968Z,-4.40
2018-12-16T19:10:45.803Z,-4.50
2018-12-16T19:13:21.959Z,-4.50
2018-12-16T19:15:56.231Z,-4.50
2018-12-16T19:18:32.963Z,-4.40
2018-12-16T19:21:12.465Z,-4.30
2018-12-16T19:24:00.121Z,-4.30
2018-12-16T19:26:35.121Z,-4.20
2018-12-16T19:29:10.085Z,-4.30
2018-12-16T19:31:49.761Z,-4.30
2018-12-16T19:34:25.528Z,-4.30
2018-12-16T19:37:07.840Z,-4.20
2018-12-16T19:39:48.940Z,-4.20
2018-12-16T19:42:30.423Z,-4.20
2018-12-16T19:45:06.544Z,-4.20
2018-12-16T19:47:41.421Z,-4.20
2018-12-16T19:50:16.008Z,-4.30
2018-12-16T19:52:52.161Z,-4.30
2018-12-16T19:55:29.642Z,-4.40
2018-12-16T19:58:13.502Z,-4.40
2018-12-16T20:00:57.364Z,-4.40
2018-12-16T20:03:34.384Z,-4.40
2018-12-16T20:06:14.423Z,-4.50
2018-12-16T20:09:04.584Z,-4.60
2018-12-16T20:11:47.225Z,-4.60
2018-12-16T20:14:23.043Z,-4.60
2018-12-16T20:16:59.583Z,-4.60
2018-12-16T20:19:34.344Z,-4.60
2018-12-16T20:22:10.103Z,-4.60
2018-12-16T20:24:55.928Z,-4.70
2018-12-16T20:27:30.624Z,-4.60
2018-12-16T20:30:08.014Z,-4.60
2018-12-16T20:32:46.723Z,-4.60
2018-12-16T20:35:25.406Z,-4.50
2018-12-16T20:38:05.946Z,-4.50
2018-12-16T20:40:52.325Z,-4.60
2018-12-16T20:43:26.307Z,-4.60
2018-12-16T20:46:14.205Z,-4.70
2018-12-16T20:48:50.964Z,-4.70
2018-12-16T20:51:25.667Z,-4.70
2018-12-16T20:53:58.167Z,-4.70
2018-12-16T20:56:37.123Z,-4.70
2018-12-16T20:59:08.824Z,-4.60
2018-12-16T21:01:51.169Z,-4.60
2018-12-16T21:04:29.747Z,-4.60
2018-12-16T21:09:47.848Z,-4.50
2018-12-16T21:12:32.388Z,-4.50
2018-12-16T21:15:13.289Z,-4.50
2018-12-16T21:17:57.950Z,-4.60
2018-12-16T21:23:28.005Z,-4.50
2018-12-16T21:26:03.514Z,-4.50
2018-12-16T21:28:35.915Z,-4.50
2018-12-16T21:31:11.395Z,-4.50
2018-12-16T21:33:43.675Z,-4.50
2018-12-16T21:36:18.334Z,-4.50
2018-12-16T21:38:59.516Z,-4.50
2018-12-16T21:41:35.035Z,-4.50
2018-12-16T21:44:10.320Z,-4.50
2018-12-16T21:46:42.234Z,-4.50
2018-12-16T21:49:17.555Z,-4.40
2018-12-16T21:52:00.279Z,-4.40
2018-12-16T21:54:41.355Z,-4.40
2018-12-16T21:57:19.142Z,-4.40
2018-12-16T22:00:00.933Z,-4.40
2018-12-16T22:02:37.395Z,-4.40
2018-12-16T22:05:19.560Z,-4.40
2018-12-16T22:07:55.917Z,-4.40
2018-12-16T22:13:18.344Z,-4.50
2018-12-16T22:15:50.224Z,-4.50
2018-12-16T22:18:21.925Z,-4.50
2018-12-16T22:21:04.376Z,-4.50
2018-12-16T22:23:36.279Z,-4.50
2018-12-16T22:26:08.100Z,-4.40
2018-12-16T22:31:26.899Z,-4.40
2018-12-16T22:34:06.317Z,-4.50
2018-12-16T22:36:45.486Z,-4.50
2018-12-16T22:39:21.435Z,-4.50
2018-12-16T22:42:00.056Z,-4.60
2018-12-16T22:44:41.214Z,-4.60
2018-12-16T22:47:17.475Z,-4.60
2018-12-16T22:50:05.394Z,-4.50
2018-12-16T22:52:40.614Z,-4.50
2018-12-16T22:55:14.815Z,-4.50
2018-12-16T22:57:57.166Z,-4.60
2018-12-16T23:03:22.358Z,-4.50
2018-12-16T23:05:56.395Z,-4.60
2018-12-16T23:08:38.815Z,-4.60
2018-12-16T23:11:13.536Z,-4.60
2018-12-16T23:13:49.435Z,-4.50
2018-12-16T23:16:25.477Z,-4.50
2018-12-16T23:19:13.916Z,-4.50
2018-12-16T23:21:49.455Z,-4.50
2018-12-16T23:24:33.056Z,-4.50
2018-12-16T23:27:04.336Z,-4.60
2018-12-16T23:29:38.835Z,-4.60
2018-12-16T23:32:20.135Z,-4.60
2018-12-16T23:34:58.614Z,-4.60
2018-12-16T23:37:37.594Z,-4.60
2018-12-16T23:40:28.218Z,-4.60
2018-12-16T23:43:04.476Z,-4.60
2018-12-16T23:45:39.513Z,-4.70
2018-12-16T23:48:17.800Z,-4.70
2018-12-16T23:50:58.437Z,-4.80
2018-12-16T23:53:30.893Z,-4.80
2018-12-16T23:56:05.273Z,-4.70
2018-12-16T23:58:44.915Z,-4.70
